Aérodrome :
LOGIN :

S'inscrire | Disclaimer

   EN    FR    IT 

 










Légende :    VFR   VFR Marginal   IFR   IFR Intensif   IFR Très Intensif
Visi : 
Plafond : 
>= 8 km
>= 3000ft
5 à 8 km
1000 à 3000 ft
1500m à 5 km
500 à 1000 ft
800 à 1500m
200 à 500 ft
< 800m
< 200 ft
Symboles :   Orages  Brouillard  Fortes neiges  Fortes précipitations  Vent > 20 kt
SIGMETs :   Divers  Orages  Givrage  Turbulence  Onde Orograph.  Cendres Volcan.







- Altitude de l'aérodrome : 119 ft
- Code IATA : WAT


EIWF - Waterford

DERNIER METAR :
  • 261830Z 19007KT 160V220 CAVOK 17/13 Q1011

METARs EXPIRÉS :
  • 261800Z 19008KT CAVOK 18/14 Q1011
  • 261730Z 19008KT CAVOK 18/14 Q1011
  • 261700Z 18007KT 150V220 CAVOK 19/14 Q1011
  • 261630Z 18009KT 150V220 CAVOK 19/14 Q1012
  • 261600Z 17010KT 150V210 CAVOK 19/14 Q1012

TAF TAF EIWF
Valide du 26 à 18h jusqu'au 27 à 03h UTC


261700Z 2618/2703 17010KT 9999 FEW020 SCT030
BECMG 2618/2621 13007KT
BECMG 2622/2624 VRB03KT
PROB30
TEMPO 2622/2624 3000 BR -RA BKN005
BECMG 2700/2702 2000 BR -RA BKN004
PROB40
TEMPO 2700/2703 0300 FG OVC001
ATIS : +353 51 877 000
Pas de NOTAMs connus pour ce terrain.
1 SIGMET publié pour la FIR Shannon (EISN) :
 
Orages noyés dans la masse
EISN SIGMET 06 VALID 261530/261900 EINN
EISN SHANNON FIR/UIR EMBD TS FCST WI N5300 W00900 - N5300 W01100 - N5430 W01100 - N5445 W00900 - N5520 W00800 - N5425 W00810 - N5300 W00900 TOP FL350 MOV N AT 25KT NC=



MET'MAP, la Météo Aéronautique d'un coup d'oeil ! - Copyright ORBIFLY Décembre 2007 - Disclaimer

ORBIFLY MET'MAP TEAM :

Programmation & Développement : Alexandra Zaïnal
Conception & Développement : Baudouin d'Aumeries
Co-Programmation & Développement : Marc-Olivier Méhu
Soutien technique & logistique : Manuel Goepfert

Contact : metmap@orbifly.com




SOURCES & CREDITS :

   NOAA